createdAt,value
2023-03-15T00:01:16.932Z,1.32
2023-03-15T00:03:37.713Z,1.36
2023-03-15T00:05:54.225Z,1.40
2023-03-15T00:08:14.865Z,1.39
2023-03-15T00:10:32.788Z,1.39
2023-03-15T00:12:49.403Z,1.39
2023-03-15T00:15:09.978Z,1.34
2023-03-15T00:17:26.613Z,1.29
2023-03-15T00:19:44.687Z,1.22
2023-03-15T00:22:03.363Z,1.22
2023-03-15T00:24:25.085Z,1.24
2023-03-15T00:26:43.923Z,1.22
2023-03-15T00:29:02.134Z,1.15
2023-03-15T00:31:18.628Z,1.22
2023-03-15T00:33:36.720Z,1.24
2023-03-15T00:35:54.849Z,1.25
2023-03-15T00:38:15.439Z,1.26
2023-03-15T00:40:35.473Z,1.39
2023-03-15T00:42:56.096Z,1.25
2023-03-15T00:45:16.732Z,1.15
2023-03-15T00:47:37.309Z,1.08
2023-03-15T00:49:57.936Z,1.08
2023-03-15T00:52:14.488Z,1.04
2023-03-15T00:54:35.088Z,1.03
2023-03-15T00:56:53.027Z,1.14
2023-03-15T00:59:11.102Z,1.10
2023-03-15T01:01:27.418Z,1.07
2023-03-15T01:03:47.523Z,0.96
2023-03-15T01:06:08.522Z,0.96
2023-03-15T01:08:30.118Z,0.92
2023-03-15T01:10:51.341Z,0.94
2023-03-15T01:13:08.502Z,0.98
2023-03-15T01:15:26.380Z,1.08
2023-03-15T01:17:44.499Z,1.21
2023-03-15T01:20:05.321Z,1.16
2023-03-15T01:22:26.168Z,1.15
2023-03-15T01:24:48.411Z,1.08
2023-03-15T01:27:06.006Z,1.06
2023-03-15T01:29:22.598Z,1.00
2023-03-15T01:31:42.312Z,0.92
2023-03-15T01:34:02.912Z,0.88
2023-03-15T01:36:20.987Z,0.94
2023-03-15T01:38:41.582Z,0.86
2023-03-15T01:40:58.665Z,0.78
2023-03-15T01:43:15.652Z,0.70
2023-03-15T01:45:36.205Z,0.72
2023-03-15T01:47:53.619Z,0.80
2023-03-15T01:50:43.084Z,0.72
2023-03-15T01:54:56.743Z,0.61
2023-03-15T01:57:18.449Z,0.60
2023-03-15T02:00:00.208Z,0.57
2023-03-15T04:51:58.119Z,-1.41
2023-03-15T04:56:45.480Z,-1.60
2023-03-15T04:59:09.727Z,-1.60
2023-03-15T05:06:56.001Z,-1.38
2023-03-15T05:12:04.575Z,-1.12
2023-03-15T05:18:02.384Z,-0.97
2023-03-15T05:20:37.488Z,-0.78
2023-03-15T05:23:14.377Z,-0.59
2023-03-15T05:24:15.041Z,-0.52
2023-03-15T05:27:26.760Z,-0.37
2023-03-15T05:28:21.724Z,-0.31
2023-03-15T05:33:36.211Z,-0.08
2023-03-15T05:34:35.200Z,-0.08
2023-03-15T05:37:35.846Z,0.00
2023-03-15T05:40:58.102Z,0.23
2023-03-15T05:46:02.702Z,0.58
2023-03-15T05:48:08.734Z,0.71
2023-03-15T05:54:58.823Z,1.07
2023-03-15T06:13:31.832Z,1.25
2023-03-15T06:23:01.456Z,1.36
2023-03-15T06:25:50.744Z,1.47
2023-03-15T09:52:47.699Z,6.48
2023-03-15T11:50:55.337Z,8.11
2023-03-15T12:32:48.772Z,8.39
2023-03-15T13:35:51.052Z,7.35
2023-03-15T14:07:15.550Z,6.99
2023-03-15T14:38:47.920Z,6.65
2023-03-15T15:12:39.116Z,7.07
2023-03-15T15:43:47.384Z,5.49
2023-03-15T16:32:55.433Z,3.70
2023-03-15T17:53:21.343Z,1.61
2023-03-15T17:55:34.384Z,1.61
2023-03-15T17:57:55.474Z,1.57
2023-03-15T18:00:09.006Z,1.54
2023-03-15T18:02:24.649Z,1.51
2023-03-15T18:04:37.789Z,1.55
2023-03-15T18:06:55.852Z,1.64
2023-03-15T18:09:11.448Z,1.69
2023-03-15T18:11:32.101Z,1.69
2023-03-15T18:19:32.376Z,1.75
2023-03-15T18:21:18.363Z,1.68
2023-03-15T18:23:39.164Z,1.58
2023-03-15T18:25:57.398Z,1.52
2023-03-15T18:28:13.800Z,1.47
2023-03-15T18:30:34.245Z,1.51
2023-03-15T18:32:55.041Z,1.47
2023-03-15T18:35:13.949Z,1.37
2023-03-15T18:37:32.036Z,1.40
2023-03-15T18:39:46.547Z,1.44
2023-03-15T18:42:04.628Z,1.43
2023-03-15T18:44:22.692Z,1.40
2023-03-15T18:46:40.787Z,1.33
2023-03-15T18:50:21.524Z,1.22
2023-03-15T20:28:08.938Z,-1.05
2023-03-15T20:30:29.842Z,-1.07
2023-03-15T20:32:50.973Z,-1.15
2023-03-15T20:35:11.212Z,-1.23
2023-03-15T20:37:31.856Z,-1.23
2023-03-15T20:39:50.013Z,-1.28
2023-03-15T20:42:10.568Z,-1.31
2023-03-15T20:44:28.772Z,-1.38
2023-03-15T20:46:49.583Z,-1.42
2023-03-15T20:49:09.866Z,-1.43
2023-03-15T20:51:30.540Z,-1.41
2023-03-15T20:53:49.396Z,-1.35
2023-03-15T20:56:08.302Z,-1.31
2023-03-15T20:58:29.898Z,-1.28
2023-03-15T21:00:50.295Z,-1.28
2023-03-15T21:03:11.027Z,-1.25
2023-03-15T21:05:29.141Z,-1.31
2023-03-15T21:07:49.834Z,-1.38
2023-03-15T21:10:08.007Z,-1.39
2023-03-15T21:12:28.187Z,-1.42
2023-03-15T21:14:49.757Z,-1.53
2023-03-15T21:17:06.245Z,-1.57
2023-03-15T21:19:27.693Z,-1.56
2023-03-15T21:21:45.855Z,-1.54
2023-03-15T21:24:06.042Z,-1.57
2023-03-15T21:26:22.513Z,-1.62
2023-03-15T21:28:39.213Z,-1.64
2023-03-15T21:30:59.904Z,-1.60
2023-03-15T21:33:18.789Z,-1.63
2023-03-15T21:35:39.410Z,-1.67
2023-03-15T21:37:53.912Z,-1.75
2023-03-15T21:40:16.073Z,-1.74
2023-03-15T21:42:33.117Z,-1.74
2023-03-15T21:44:51.320Z,-1.70
2023-03-15T21:47:11.762Z,-1.59
2023-03-15T21:49:32.389Z,-1.56
2023-03-15T21:51:48.893Z,-1.54
2023-03-15T21:54:09.381Z,-1.51
2023-03-15T21:56:30.385Z,-1.56
2023-03-15T21:58:48.874Z,-1.59
2023-03-15T22:01:09.508Z,-1.64
2023-03-15T22:03:30.047Z,-1.67
2023-03-15T22:05:50.380Z,-1.72
2023-03-15T22:08:11.260Z,-1.67
2023-03-15T22:10:31.658Z,-1.67
2023-03-15T22:12:52.191Z,-1.66
2023-03-15T22:15:13.086Z,-1.66
2023-03-15T22:17:34.068Z,-1.69
2023-03-15T22:19:54.681Z,-1.74
2023-03-15T22:22:15.331Z,-1.78
2023-03-15T22:24:36.213Z,-1.85
2023-03-15T22:26:52.738Z,-1.84
2023-03-15T22:29:13.162Z,-1.87
2023-03-15T22:31:33.693Z,-1.92
2023-03-15T22:33:55.114Z,-1.95
2023-03-15T22:36:12.586Z,-1.90
2023-03-15T22:38:32.972Z,-1.87
2023-03-15T22:40:51.095Z,-1.85
2023-03-15T22:43:05.677Z,-1.81
2023-03-15T22:45:26.400Z,-1.75
2023-03-15T22:47:46.971Z,-1.82
2023-03-15T22:50:07.442Z,-1.82
2023-03-15T22:52:25.892Z,-1.88
2023-03-15T22:54:46.165Z,-1.98
2023-03-15T22:57:07.263Z,-1.99
2023-03-15T22:59:25.911Z,-2.05
2023-03-15T23:01:46.266Z,-2.06
2023-03-15T23:04:01.837Z,-2.11
2023-03-15T23:06:21.984Z,-2.13
2023-03-15T23:08:42.800Z,-2.20
2023-03-15T23:11:04.072Z,-2.20
2023-03-15T23:13:24.168Z,-2.24
2023-03-15T23:15:44.433Z,-2.32
2023-03-15T23:18:05.092Z,-2.32
2023-03-15T23:20:23.756Z,-2.29
2023-03-15T23:22:41.488Z,-2.33
2023-03-15T23:25:03.247Z,-2.38
2023-03-15T23:27:26.029Z,-2.36
2023-03-15T23:29:54.629Z,-2.35
2023-03-15T23:32:07.140Z,-2.33
2023-03-15T23:34:25.114Z,-2.39
2023-03-15T23:36:45.217Z,-2.42
2023-03-15T23:39:01.209Z,-2.47
2023-03-15T23:41:19.416Z,-2.45
2023-03-15T23:43:37.489Z,-2.51
2023-03-15T23:45:58.117Z,-2.57
2023-03-15T23:48:12.612Z,-2.63
2023-03-15T23:50:33.264Z,-2.61
2023-03-15T23:52:53.783Z,-2.54
2023-03-15T23:55:12.025Z,-2.56
2023-03-15T23:57:32.445Z,-2.60
2023-03-15T23:59:49.336Z,-2.57
